sensor_id;sensor_type;location;lat;lon;timestamp;P1;durP1;ratioP1;P2;durP2;ratioP2
32094;SDS011;18608;53.688;10.748;2024-01-30T00:01:59;4.97;;;4.57;;
32094;SDS011;18608;53.688;10.748;2024-01-30T00:04:25;5.40;;;4.90;;
32094;SDS011;18608;53.688;10.748;2024-01-30T00:06:50;6.83;;;5.00;;
32094;SDS011;18608;53.688;10.748;2024-01-30T00:09:18;4.80;;;4.27;;
32094;SDS011;18608;53.688;10.748;2024-01-30T00:11:44;7.00;;;5.23;;
32094;SDS011;18608;53.688;10.748;2024-01-30T00:14:10;6.90;;;5.27;;
32094;SDS011;18608;53.688;10.748;2024-01-30T00:16:36;6.70;;;5.20;;
32094;SDS011;18608;53.688;10.748;2024-01-30T00:19:02;9.07;;;6.17;;
32094;SDS011;18608;53.688;10.748;2024-01-30T00:21:28;8.17;;;5.13;;
32094;SDS011;18608;53.688;10.748;2024-01-30T00:23:54;8.27;;;6.10;;
32094;SDS011;18608;53.688;10.748;2024-01-30T00:26:20;6.13;;;5.10;;
32094;SDS011;18608;53.688;10.748;2024-01-30T00:28:46;7.67;;;6.10;;
32094;SDS011;18608;53.688;10.748;2024-01-30T00:31:12;6.03;;;5.47;;
32094;SDS011;18608;53.688;10.748;2024-01-30T00:33:39;11.90;;;5.90;;
32094;SDS011;18608;53.688;10.748;2024-01-30T00:36:08;5.90;;;5.20;;
32094;SDS011;18608;53.688;10.748;2024-01-30T00:38:34;10.50;;;5.70;;
32094;SDS011;18608;53.688;10.748;2024-01-30T00:41:00;7.93;;;5.57;;
32094;SDS011;18608;53.688;10.748;2024-01-30T00:43:29;9.23;;;6.07;;
32094;SDS011;18608;53.688;10.748;2024-01-30T00:45:56;8.10;;;5.40;;
32094;SDS011;18608;53.688;10.748;2024-01-30T00:48:23;7.93;;;5.03;;
32094;SDS011;18608;53.688;10.748;2024-01-30T00:50:49;5.33;;;4.60;;
32094;SDS011;18608;53.688;10.748;2024-01-30T00:53:15;6.27;;;5.60;;
32094;SDS011;18608;53.688;10.748;2024-01-30T00:55:41;7.77;;;5.00;;
32094;SDS011;18608;53.688;10.748;2024-01-30T00:58:07;10.77;;;6.10;;
32094;SDS011;18608;53.688;10.748;2024-01-30T01:00:33;6.33;;;5.73;;
32094;SDS011;18608;53.688;10.748;2024-01-30T01:02:58;8.87;;;5.37;;
32094;SDS011;18608;53.688;10.748;2024-01-30T01:05:25;9.50;;;5.70;;
32094;SDS011;18608;53.688;10.748;2024-01-30T01:07:51;5.30;;;4.63;;
32094;SDS011;18608;53.688;10.748;2024-01-30T01:10:17;10.43;;;6.00;;
32094;SDS011;18608;53.688;10.748;2024-01-30T01:12:43;5.43;;;4.77;;
32094;SDS011;18608;53.688;10.748;2024-01-30T01:15:09;10.20;;;5.53;;
32094;SDS011;18608;53.688;10.748;2024-01-30T01:17:36;7.67;;;5.90;;
32094;SDS011;18608;53.688;10.748;2024-01-30T01:20:03;6.63;;;5.10;;
32094;SDS011;18608;53.688;10.748;2024-01-30T01:22:30;7.20;;;5.47;;
32094;SDS011;18608;53.688;10.748;2024-01-30T01:24:56;11.63;;;5.80;;
32094;SDS011;18608;53.688;10.748;2024-01-30T01:27:22;5.00;;;4.60;;
32094;SDS011;18608;53.688;10.748;2024-01-30T01:29:48;5.80;;;5.23;;
32094;SDS011;18608;53.688;10.748;2024-01-30T01:32:14;6.83;;;5.60;;
32094;SDS011;18608;53.688;10.748;2024-01-30T01:34:40;8.13;;;5.17;;
32094;SDS011;18608;53.688;10.748;2024-01-30T01:37:06;8.20;;;5.17;;
32094;SDS011;18608;53.688;10.748;2024-01-30T01:39:32;9.33;;;4.97;;
32094;SDS011;18608;53.688;10.748;2024-01-30T01:41:58;5.80;;;5.30;;
32094;SDS011;18608;53.688;10.748;2024-01-30T01:44:24;6.00;;;4.70;;
32094;SDS011;18608;53.688;10.748;2024-01-30T01:46:50;5.60;;;4.77;;
32094;SDS011;18608;53.688;10.748;2024-01-30T01:49:17;9.80;;;5.33;;
32094;SDS011;18608;53.688;10.748;2024-01-30T01:51:44;6.30;;;5.70;;
32094;SDS011;18608;53.688;10.748;2024-01-30T01:54:12;6.80;;;4.73;;
32094;SDS011;18608;53.688;10.748;2024-01-30T01:56:39;6.30;;;4.80;;
32094;SDS011;18608;53.688;10.748;2024-01-30T01:59:06;7.27;;;5.77;;
32094;SDS011;18608;53.688;10.748;2024-01-30T02:01:33;7.07;;;5.33;;
32094;SDS011;18608;53.688;10.748;2024-01-30T02:03:59;7.87;;;4.70;;
32094;SDS011;18608;53.688;10.748;2024-01-30T02:06:26;6.50;;;5.73;;
32094;SDS011;18608;53.688;10.748;2024-01-30T02:08:52;5.23;;;4.83;;
32094;SDS011;18608;53.688;10.748;2024-01-30T02:11:18;7.80;;;5.47;;
32094;SDS011;18608;53.688;10.748;2024-01-30T02:13:44;7.97;;;5.60;;
32094;SDS011;18608;53.688;10.748;2024-01-30T02:16:10;8.70;;;6.13;;
32094;SDS011;18608;53.688;10.748;2024-01-30T02:18:36;6.17;;;5.53;;
32094;SDS011;18608;53.688;10.748;2024-01-30T02:21:07;5.97;;;5.30;;
32094;SDS011;18608;53.688;10.748;2024-01-30T02:23:33;5.93;;;4.83;;
32094;SDS011;18608;53.688;10.748;2024-01-30T02:25:59;6.40;;;5.70;;
32094;SDS011;18608;53.688;10.748;2024-01-30T02:28:25;7.23;;;5.50;;
32094;SDS011;18608;53.688;10.748;2024-01-30T02:30:52;9.77;;;6.03;;
32094;SDS011;18608;53.688;10.748;2024-01-30T02:33:18;9.80;;;5.60;;
32094;SDS011;18608;53.688;10.748;2024-01-30T02:35:44;5.30;;;4.80;;
32094;SDS011;18608;53.688;10.748;2024-01-30T02:38:10;4.97;;;4.50;;
32094;SDS011;18608;53.688;10.748;2024-01-30T02:40:36;5.27;;;4.73;;
32094;SDS011;18608;53.688;10.748;2024-01-30T02:43:03;5.77;;;5.13;;
32094;SDS011;18608;53.688;10.748;2024-01-30T02:45:28;6.20;;;5.60;;
32094;SDS011;18608;53.688;10.748;2024-01-30T02:47:55;5.83;;;5.33;;
32094;SDS011;18608;53.688;10.748;2024-01-30T02:50:21;5.93;;;5.37;;
32094;SDS011;18608;53.688;10.748;2024-01-30T02:52:46;9.40;;;5.73;;
32094;SDS011;18608;53.688;10.748;2024-01-30T02:55:12;9.93;;;6.20;;
32094;SDS011;18608;53.688;10.748;2024-01-30T02:57:38;5.97;;;5.30;;
32094;SDS011;18608;53.688;10.748;2024-01-30T03:00:06;7.47;;;5.90;;
32094;SDS011;18608;53.688;10.748;2024-01-30T03:02:34;5.60;;;5.10;;
32094;SDS011;18608;53.688;10.748;2024-01-30T03:05:00;8.67;;;6.33;;
32094;SDS011;18608;53.688;10.748;2024-01-30T03:07:26;6.13;;;5.53;;
32094;SDS011;18608;53.688;10.748;2024-01-30T03:09:52;9.60;;;7.13;;
32094;SDS011;18608;53.688;10.748;2024-01-30T03:12:20;16.53;;;7.10;;
32094;SDS011;18608;53.688;10.748;2024-01-30T03:14:46;6.83;;;6.17;;
32094;SDS011;18608;53.688;10.748;2024-01-30T03:17:12;12.00;;;6.70;;
32094;SDS011;18608;53.688;10.748;2024-01-30T03:19:38;6.50;;;5.90;;
32094;SDS011;18608;53.688;10.748;2024-01-30T03:22:04;8.90;;;7.37;;
32094;SDS011;18608;53.688;10.748;2024-01-30T03:24:30;7.80;;;6.90;;
32094;SDS011;18608;53.688;10.748;2024-01-30T03:26:56;11.27;;;6.67;;
32094;SDS011;18608;53.688;10.748;2024-01-30T03:29:21;10.30;;;6.87;;
32094;SDS011;18608;53.688;10.748;2024-01-30T03:31:47;12.07;;;7.23;;
32094;SDS011;18608;53.688;10.748;2024-01-30T03:34:13;8.80;;;6.27;;
32094;SDS011;18608;53.688;10.748;2024-01-30T03:36:39;10.40;;;7.13;;
32094;SDS011;18608;53.688;10.748;2024-01-30T03:39:05;10.23;;;6.47;;
32094;SDS011;18608;53.688;10.748;2024-01-30T03:41:31;11.93;;;8.67;;
32094;SDS011;18608;53.688;10.748;2024-01-30T03:43:58;12.23;;;8.43;;
32094;SDS011;18608;53.688;10.748;2024-01-30T03:46:24;9.63;;;7.10;;
32094;SDS011;18608;53.688;10.748;2024-01-30T03:48:50;13.27;;;8.40;;
32094;SDS011;18608;53.688;10.748;2024-01-30T03:51:15;10.70;;;7.60;;
32094;SDS011;18608;53.688;10.748;2024-01-30T03:53:41;16.53;;;8.50;;
32094;SDS011;18608;53.688;10.748;2024-01-30T03:56:08;11.53;;;7.77;;
32094;SDS011;18608;53.688;10.748;2024-01-30T03:58:34;14.03;;;8.40;;
32094;SDS011;18608;53.688;10.748;2024-01-30T04:01:00;10.67;;;9.27;;
32094;SDS011;18608;53.688;10.748;2024-01-30T04:03:26;10.93;;;7.97;;
32094;SDS011;18608;53.688;10.748;2024-01-30T04:05:52;9.23;;;7.43;;
32094;SDS011;18608;53.688;10.748;2024-01-30T04:08:18;11.73;;;7.90;;
32094;SDS011;18608;53.688;10.748;2024-01-30T04:10:44;15.77;;;8.00;;
32094;SDS011;18608;53.688;10.748;2024-01-30T04:13:10;11.43;;;7.73;;
32094;SDS011;18608;53.688;10.748;2024-01-30T04:15:36;17.83;;;8.70;;
32094;SDS011;18608;53.688;10.748;2024-01-30T04:18:02;12.37;;;8.10;;
32094;SDS011;18608;53.688;10.748;2024-01-30T04:20:29;9.53;;;8.27;;
32094;SDS011;18608;53.688;10.748;2024-01-30T04:22:54;12.67;;;7.80;;
32094;SDS011;18608;53.688;10.748;2024-01-30T04:25:20;14.90;;;7.47;;
32094;SDS011;18608;53.688;10.748;2024-01-30T04:27:46;17.43;;;9.07;;
32094;SDS011;18608;53.688;10.748;2024-01-30T04:30:13;12.03;;;8.50;;
32094;SDS011;18608;53.688;10.748;2024-01-30T04:32:38;12.53;;;7.37;;
32094;SDS011;18608;53.688;10.748;2024-01-30T04:35:04;13.87;;;9.40;;
32094;SDS011;18608;53.688;10.748;2024-01-30T04:37:30;12.67;;;7.83;;
32094;SDS011;18608;53.688;10.748;2024-01-30T04:39:56;12.00;;;8.47;;
32094;SDS011;18608;53.688;10.748;2024-01-30T04:42:22;10.30;;;8.27;;
32094;SDS011;18608;53.688;10.748;2024-01-30T04:44:49;13.13;;;9.00;;
32094;SDS011;18608;53.688;10.748;2024-01-30T04:47:15;15.37;;;10.13;;
32094;SDS011;18608;53.688;10.748;2024-01-30T04:49:41;10.90;;;8.00;;
32094;SDS011;18608;53.688;10.748;2024-01-30T04:52:07;13.20;;;8.30;;
32094;SDS011;18608;53.688;10.748;2024-01-30T04:54:33;11.57;;;9.23;;
32094;SDS011;18608;53.688;10.748;2024-01-30T04:56:59;14.67;;;9.07;;
32094;SDS011;18608;53.688;10.748;2024-01-30T04:59:25;16.50;;;8.40;;
32094;SDS011;18608;53.688;10.748;2024-01-30T05:01:51;14.23;;;9.03;;
32094;SDS011;18608;53.688;10.748;2024-01-30T05:04:17;12.50;;;8.57;;
32094;SDS011;18608;53.688;10.748;2024-01-30T05:06:43;18.40;;;10.87;;
32094;SDS011;18608;53.688;10.748;2024-01-30T05:09:09;16.10;;;8.63;;
32094;SDS011;18608;53.688;10.748;2024-01-30T05:11:36;15.97;;;8.37;;
32094;SDS011;18608;53.688;10.748;2024-01-30T05:14:05;18.70;;;9.70;;
32094;SDS011;18608;53.688;10.748;2024-01-30T05:16:32;15.03;;;9.57;;
32094;SDS011;18608;53.688;10.748;2024-01-30T05:18:58;16.10;;;9.63;;
32094;SDS011;18608;53.688;10.748;2024-01-30T05:21:24;12.43;;;9.27;;
32094;SDS011;18608;53.688;10.748;2024-01-30T05:23:50;11.27;;;9.23;;
32094;SDS011;18608;53.688;10.748;2024-01-30T05:26:16;13.03;;;9.27;;
32094;SDS011;18608;53.688;10.748;2024-01-30T05:28:43;12.23;;;10.13;;
32094;SDS011;18608;53.688;10.748;2024-01-30T05:31:09;13.03;;;9.30;;
32094;SDS011;18608;53.688;10.748;2024-01-30T05:33:35;11.83;;;9.00;;
32094;SDS011;18608;53.688;10.748;2024-01-30T05:36:01;10.73;;;9.03;;
32094;SDS011;18608;53.688;10.748;2024-01-30T05:38:29;20.07;;;8.73;;
32094;SDS011;18608;53.688;10.748;2024-01-30T05:40:55;13.13;;;8.87;;
32094;SDS011;18608;53.688;10.748;2024-01-30T05:43:23;13.80;;;9.67;;
32094;SDS011;18608;53.688;10.748;2024-01-30T05:45:49;13.50;;;9.40;;
32094;SDS011;18608;53.688;10.748;2024-01-30T05:48:15;11.67;;;9.37;;
32094;SDS011;18608;53.688;10.748;2024-01-30T05:50:41;18.60;;;8.23;;
32094;SDS011;18608;53.688;10.748;2024-01-30T05:53:07;11.40;;;8.90;;
32094;SDS011;18608;53.688;10.748;2024-01-30T05:55:33;10.10;;;7.90;;
32094;SDS011;18608;53.688;10.748;2024-01-30T05:57:59;14.57;;;8.97;;
32094;SDS011;18608;53.688;10.748;2024-01-30T06:00:25;17.13;;;9.87;;
32094;SDS011;18608;53.688;10.748;2024-01-30T06:02:51;11.97;;;8.87;;
32094;SDS011;18608;53.688;10.748;2024-01-30T06:05:17;13.10;;;9.50;;
32094;SDS011;18608;53.688;10.748;2024-01-30T06:07:43;15.27;;;8.47;;
32094;SDS011;18608;53.688;10.748;2024-01-30T06:10:09;15.27;;;8.33;;
32094;SDS011;18608;53.688;10.748;2024-01-30T06:12:34;12.30;;;8.43;;
32094;SDS011;18608;53.688;10.748;2024-01-30T06:15:00;12.00;;;8.60;;
32094;SDS011;18608;53.688;10.748;2024-01-30T06:17:27;13.43;;;8.73;;
32094;SDS011;18608;53.688;10.748;2024-01-30T06:19:53;15.23;;;9.50;;
32094;SDS011;18608;53.688;10.748;2024-01-30T06:22:19;12.23;;;8.87;;
32094;SDS011;18608;53.688;10.748;2024-01-30T06:24:45;13.40;;;9.17;;
32094;SDS011;18608;53.688;10.748;2024-01-30T06:27:13;14.27;;;9.60;;
32094;SDS011;18608;53.688;10.748;2024-01-30T06:29:40;14.53;;;8.97;;
32094;SDS011;18608;53.688;10.748;2024-01-30T06:32:05;13.93;;;9.70;;
32094;SDS011;18608;53.688;10.748;2024-01-30T06:34:31;15.77;;;9.77;;
32094;SDS011;18608;53.688;10.748;2024-01-30T06:36:57;21.33;;;10.07;;
32094;SDS011;18608;53.688;10.748;2024-01-30T06:39:23;15.27;;;10.30;;
32094;SDS011;18608;53.688;10.748;2024-01-30T06:41:50;15.13;;;10.30;;
32094;SDS011;18608;53.688;10.748;2024-01-30T06:44:16;15.73;;;10.40;;
32094;SDS011;18608;53.688;10.748;2024-01-30T06:46:42;17.00;;;10.60;;
32094;SDS011;18608;53.688;10.748;2024-01-30T06:49:08;16.50;;;11.23;;
32094;SDS011;18608;53.688;10.748;2024-01-30T06:51:34;15.20;;;9.50;;
32094;SDS011;18608;53.688;10.748;2024-01-30T06:54:00;27.23;;;12.97;;
32094;SDS011;18608;53.688;10.748;2024-01-30T06:56:26;16.17;;;11.00;;
32094;SDS011;18608;53.688;10.748;2024-01-30T06:58:52;19.93;;;11.37;;
32094;SDS011;18608;53.688;10.748;2024-01-30T07:01:18;14.80;;;10.50;;
32094;SDS011;18608;53.688;10.748;2024-01-30T07:03:44;17.80;;;12.70;;
32094;SDS011;18608;53.688;10.748;2024-01-30T07:06:10;21.20;;;12.17;;
32094;SDS011;18608;53.688;10.748;2024-01-30T07:08:36;14.60;;;10.47;;
32094;SDS011;18608;53.688;10.748;2024-01-30T07:11:04;15.20;;;10.80;;
32094;SDS011;18608;53.688;10.748;2024-01-30T07:13:31;21.37;;;12.90;;
32094;SDS011;18608;53.688;10.748;2024-01-30T07:15:56;18.27;;;11.77;;
32094;SDS011;18608;53.688;10.748;2024-01-30T07:18:23;21.87;;;12.47;;
32094;SDS011;18608;53.688;10.748;2024-01-30T07:20:49;18.63;;;11.37;;
32094;SDS011;18608;53.688;10.748;2024-01-30T07:23:15;20.77;;;10.90;;
32094;SDS011;18608;53.688;10.748;2024-01-30T07:25:43;19.10;;;11.70;;
32094;SDS011;18608;53.688;10.748;2024-01-30T07:28:09;17.77;;;11.70;;
32094;SDS011;18608;53.688;10.748;2024-01-30T07:30:36;20.30;;;11.97;;
32094;SDS011;18608;53.688;10.748;2024-01-30T07:33:02;21.77;;;11.13;;
32094;SDS011;18608;53.688;10.748;2024-01-30T07:35:28;22.93;;;12.63;;
32094;SDS011;18608;53.688;10.748;2024-01-30T07:37:54;15.60;;;10.43;;
32094;SDS011;18608;53.688;10.748;2024-01-30T07:40:22;19.43;;;12.50;;
32094;SDS011;18608;53.688;10.748;2024-01-30T07:42:48;16.77;;;11.67;;
32094;SDS011;18608;53.688;10.748;2024-01-30T07:45:14;14.60;;;10.80;;
32094;SDS011;18608;53.688;10.748;2024-01-30T07:47:41;19.47;;;11.77;;
32094;SDS011;18608;53.688;10.748;2024-01-30T07:50:07;18.00;;;13.00;;
32094;SDS011;18608;53.688;10.748;2024-01-30T07:52:34;22.60;;;12.87;;
32094;SDS011;18608;53.688;10.748;2024-01-30T07:55:00;22.63;;;12.93;;
32094;SDS011;18608;53.688;10.748;2024-01-30T08:03:51;27.27;;;13.33;;
32094;SDS011;18608;53.688;10.748;2024-01-30T08:06:17;19.87;;;13.20;;
32094;SDS011;18608;53.688;10.748;2024-01-30T08:08:44;19.70;;;13.47;;
32094;SDS011;18608;53.688;10.748;2024-01-30T08:11:10;17.47;;;12.93;;
32094;SDS011;18608;53.688;10.748;2024-01-30T08:13:36;20.60;;;13.43;;
32094;SDS011;18608;53.688;10.748;2024-01-30T08:16:02;18.03;;;11.30;;
32094;SDS011;18608;53.688;10.748;2024-01-30T08:18:29;22.10;;;13.30;;
32094;SDS011;18608;53.688;10.748;2024-01-30T08:20:55;17.00;;;12.60;;
32094;SDS011;18608;53.688;10.748;2024-01-30T08:23:21;19.00;;;13.63;;
32094;SDS011;18608;53.688;10.748;2024-01-30T08:25:47;21.30;;;13.63;;
32094;SDS011;18608;53.688;10.748;2024-01-30T08:28:13;35.63;;;14.23;;
32094;SDS011;18608;53.688;10.748;2024-01-30T08:30:39;22.50;;;15.70;;
32094;SDS011;18608;53.688;10.748;2024-01-30T08:33:05;24.13;;;13.63;;
32094;SDS011;18608;53.688;10.748;2024-01-30T08:35:31;22.93;;;12.43;;
32094;SDS011;18608;53.688;10.748;2024-01-30T08:37:58;22.30;;;12.03;;
32094;SDS011;18608;53.688;10.748;2024-01-30T08:40:24;19.97;;;10.90;;
32094;SDS011;18608;53.688;10.748;2024-01-30T08:42:50;19.33;;;11.40;;
32094;SDS011;18608;53.688;10.748;2024-01-30T08:45:16;20.67;;;13.70;;
32094;SDS011;18608;53.688;10.748;2024-01-30T08:47:42;26.10;;;12.80;;
32094;SDS011;18608;53.688;10.748;2024-01-30T08:50:08;19.37;;;12.50;;
32094;SDS011;18608;53.688;10.748;2024-01-30T08:52:34;18.00;;;13.13;;
32094;SDS011;18608;53.688;10.748;2024-01-30T08:55:00;16.07;;;12.20;;
32094;SDS011;18608;53.688;10.748;2024-01-30T08:57:26;19.30;;;11.80;;
32094;SDS011;18608;53.688;10.748;2024-01-30T08:59:54;20.43;;;12.07;;
32094;SDS011;18608;53.688;10.748;2024-01-30T09:02:20;21.10;;;12.17;;
32094;SDS011;18608;53.688;10.748;2024-01-30T09:04:46;17.37;;;11.80;;
32094;SDS011;18608;53.688;10.748;2024-01-30T09:07:12;18.83;;;13.43;;
32094;SDS011;18608;53.688;10.748;2024-01-30T09:09:39;18.70;;;12.20;;
32094;SDS011;18608;53.688;10.748;2024-01-30T09:12:08;17.43;;;11.07;;
32094;SDS011;18608;53.688;10.748;2024-01-30T09:14:37;17.83;;;12.87;;
32094;SDS011;18608;53.688;10.748;2024-01-30T09:17:02;17.70;;;12.63;;
32094;SDS011;18608;53.688;10.748;2024-01-30T09:19:29;18.60;;;11.80;;
32094;SDS011;18608;53.688;10.748;2024-01-30T09:21:55;16.50;;;11.23;;
32094;SDS011;18608;53.688;10.748;2024-01-30T09:24:21;18.20;;;11.07;;
32094;SDS011;18608;53.688;10.748;2024-01-30T09:26:47;16.00;;;11.60;;
32094;SDS011;18608;53.688;10.748;2024-01-30T09:29:13;18.63;;;12.10;;
32094;SDS011;18608;53.688;10.748;2024-01-30T09:31:43;20.03;;;12.87;;
32094;SDS011;18608;53.688;10.748;2024-01-30T09:34:09;19.57;;;11.63;;
32094;SDS011;18608;53.688;10.748;2024-01-30T09:36:35;20.93;;;12.40;;
32094;SDS011;18608;53.688;10.748;2024-01-30T09:39:01;28.83;;;13.60;;
32094;SDS011;18608;53.688;10.748;2024-01-30T09:41:27;22.00;;;12.77;;
32094;SDS011;18608;53.688;10.748;2024-01-30T09:43:53;21.27;;;12.20;;
32094;SDS011;18608;53.688;10.748;2024-01-30T09:46:21;20.50;;;12.00;;
32094;SDS011;18608;53.688;10.748;2024-01-30T09:48:52;19.83;;;12.17;;
32094;SDS011;18608;53.688;10.748;2024-01-30T09:51:20;19.23;;;12.30;;
32094;SDS011;18608;53.688;10.748;2024-01-30T09:53:47;23.63;;;12.87;;
32094;SDS011;18608;53.688;10.748;2024-01-30T09:56:13;20.33;;;12.93;;
32094;SDS011;18608;53.688;10.748;2024-01-30T09:58:39;21.70;;;12.40;;
32094;SDS011;18608;53.688;10.748;2024-01-30T10:01:05;14.60;;;11.73;;
32094;SDS011;18608;53.688;10.748;2024-01-30T10:03:31;18.20;;;11.90;;
32094;SDS011;18608;53.688;10.748;2024-01-30T10:05:57;20.07;;;13.93;;
32094;SDS011;18608;53.688;10.748;2024-01-30T10:08:24;17.23;;;11.40;;
32094;SDS011;18608;53.688;10.748;2024-01-30T10:10:51;17.03;;;11.57;;
32094;SDS011;18608;53.688;10.748;2024-01-30T10:13:17;15.70;;;10.80;;
32094;SDS011;18608;53.688;10.748;2024-01-30T10:15:43;18.97;;;11.77;;
32094;SDS011;18608;53.688;10.748;2024-01-30T10:18:10;19.00;;;11.57;;
32094;SDS011;18608;53.688;10.748;2024-01-30T10:20:36;20.13;;;10.70;;
32094;SDS011;18608;53.688;10.748;2024-01-30T10:23:02;18.13;;;11.30;;
32094;SDS011;18608;53.688;10.748;2024-01-30T10:25:32;13.63;;;10.00;;
32094;SDS011;18608;53.688;10.748;2024-01-30T10:27:58;17.27;;;11.23;;
32094;SDS011;18608;53.688;10.748;2024-01-30T10:30:25;16.43;;;10.50;;
32094;SDS011;18608;53.688;10.748;2024-01-30T10:32:51;21.37;;;9.00;;
32094;SDS011;18608;53.688;10.748;2024-01-30T10:35:17;17.83;;;10.80;;
32094;SDS011;18608;53.688;10.748;2024-01-30T10:37:43;26.60;;;11.00;;
32094;SDS011;18608;53.688;10.748;2024-01-30T10:40:12;13.40;;;10.43;;
32094;SDS011;18608;53.688;10.748;2024-01-30T10:42:41;13.90;;;9.40;;
32094;SDS011;18608;53.688;10.748;2024-01-30T10:45:09;15.47;;;9.97;;
32094;SDS011;18608;53.688;10.748;2024-01-30T10:47:39;16.27;;;10.20;;
32094;SDS011;18608;53.688;10.748;2024-01-30T10:50:07;15.43;;;11.03;;
32094;SDS011;18608;53.688;10.748;2024-01-30T10:52:34;17.83;;;10.33;;
32094;SDS011;18608;53.688;10.748;2024-01-30T10:54:59;15.57;;;9.40;;
32094;SDS011;18608;53.688;10.748;2024-01-30T10:57:26;19.67;;;10.97;;
32094;SDS011;18608;53.688;10.748;2024-01-30T10:59:59;18.30;;;10.77;;
32094;SDS011;18608;53.688;10.748;2024-01-30T11:02:28;17.07;;;10.03;;
32094;SDS011;18608;53.688;10.748;2024-01-30T11:04:58;17.53;;;10.13;;
32094;SDS011;18608;53.688;10.748;2024-01-30T11:07:25;17.23;;;10.60;;
32094;SDS011;18608;53.688;10.748;2024-01-30T11:10:02;18.07;;;10.67;;
32094;SDS011;18608;53.688;10.748;2024-01-30T11:12:32;20.03;;;11.13;;
32094;SDS011;18608;53.688;10.748;2024-01-30T11:15:08;15.80;;;10.17;;
32094;SDS011;18608;53.688;10.748;2024-01-30T11:20:25;15.20;;;9.83;;
32094;SDS011;18608;53.688;10.748;2024-01-30T11:23:00;14.07;;;9.50;;
32094;SDS011;18608;53.688;10.748;2024-01-30T11:25:31;15.30;;;10.20;;
32094;SDS011;18608;53.688;10.748;2024-01-30T11:27:57;11.77;;;8.87;;
32094;SDS011;18608;53.688;10.748;2024-01-30T11:30:30;14.33;;;10.37;;
32094;SDS011;18608;53.688;10.748;2024-01-30T11:35:25;14.33;;;8.80;;
32094;SDS011;18608;53.688;10.748;2024-01-30T11:37:51;15.13;;;9.10;;
32094;SDS011;18608;53.688;10.748;2024-01-30T11:40:19;11.73;;;9.57;;
32094;SDS011;18608;53.688;10.748;2024-01-30T11:42:44;20.03;;;9.33;;
32094;SDS011;18608;53.688;10.748;2024-01-30T11:45:12;14.03;;;8.83;;
32094;SDS011;18608;53.688;10.748;2024-01-30T11:47:38;14.90;;;9.93;;
32094;SDS011;18608;53.688;10.748;2024-01-30T11:50:04;15.53;;;9.40;;
32094;SDS011;18608;53.688;10.748;2024-01-30T11:52:32;15.33;;;9.43;;
32094;SDS011;18608;53.688;10.748;2024-01-30T11:54:58;13.93;;;11.00;;
32094;SDS011;18608;53.688;10.748;2024-01-30T11:57:26;13.00;;;8.73;;
32094;SDS011;18608;53.688;10.748;2024-01-30T11:59:52;16.67;;;10.33;;
32094;SDS011;18608;53.688;10.748;2024-01-30T12:02:18;14.73;;;10.60;;
32094;SDS011;18608;53.688;10.748;2024-01-30T12:04:44;14.10;;;8.93;;
32094;SDS011;18608;53.688;10.748;2024-01-30T12:07:10;13.00;;;10.27;;
32094;SDS011;18608;53.688;10.748;2024-01-30T12:09:38;16.83;;;10.13;;
32094;SDS011;18608;53.688;10.748;2024-01-30T12:12:04;16.47;;;10.23;;
32094;SDS011;18608;53.688;10.748;2024-01-30T12:14:30;17.13;;;9.63;;
32094;SDS011;18608;53.688;10.748;2024-01-30T12:16:56;12.90;;;8.87;;
32094;SDS011;18608;53.688;10.748;2024-01-30T12:19:26;13.40;;;9.30;;
32094;SDS011;18608;53.688;10.748;2024-01-30T12:21:56;15.23;;;10.50;;
32094;SDS011;18608;53.688;10.748;2024-01-30T12:24:23;14.47;;;10.17;;
32094;SDS011;18608;53.688;10.748;2024-01-30T12:26:49;20.87;;;9.57;;
32094;SDS011;18608;53.688;10.748;2024-01-30T12:29:16;28.07;;;11.37;;
32094;SDS011;18608;53.688;10.748;2024-01-30T12:31:42;21.60;;;12.00;;
32094;SDS011;18608;53.688;10.748;2024-01-30T12:34:09;18.97;;;10.17;;
32094;SDS011;18608;53.688;10.748;2024-01-30T12:36:35;18.03;;;10.03;;
32094;SDS011;18608;53.688;10.748;2024-01-30T12:39:01;16.10;;;9.83;;
32094;SDS011;18608;53.688;10.748;2024-01-30T12:41:27;19.70;;;10.17;;
32094;SDS011;18608;53.688;10.748;2024-01-30T12:43:54;14.67;;;8.67;;
32094;SDS011;18608;53.688;10.748;2024-01-30T12:46:20;14.80;;;9.07;;
32094;SDS011;18608;53.688;10.748;2024-01-30T12:48:46;15.23;;;10.23;;
32094;SDS011;18608;53.688;10.748;2024-01-30T12:51:12;15.37;;;9.27;;
32094;SDS011;18608;53.688;10.748;2024-01-30T12:53:38;12.27;;;8.60;;
32094;SDS011;18608;53.688;10.748;2024-01-30T12:56:04;15.63;;;9.80;;
32094;SDS011;18608;53.688;10.748;2024-01-30T12:58:30;11.47;;;8.37;;
32094;SDS011;18608;53.688;10.748;2024-01-30T13:00:56;15.30;;;8.70;;
32094;SDS011;18608;53.688;10.748;2024-01-30T13:03:22;17.00;;;9.03;;
32094;SDS011;18608;53.688;10.748;2024-01-30T13:05:48;10.67;;;8.10;;
32094;SDS011;18608;53.688;10.748;2024-01-30T13:08:14;13.53;;;8.30;;
32094;SDS011;18608;53.688;10.748;2024-01-30T13:10:40;13.43;;;7.83;;
32094;SDS011;18608;53.688;10.748;2024-01-30T13:13:06;13.20;;;8.37;;
32094;SDS011;18608;53.688;10.748;2024-01-30T13:15:33;10.77;;;8.00;;
32094;SDS011;18608;53.688;10.748;2024-01-30T13:17:59;17.90;;;8.63;;
32094;SDS011;18608;53.688;10.748;2024-01-30T13:20:25;13.50;;;8.23;;
32094;SDS011;18608;53.688;10.748;2024-01-30T13:22:50;15.80;;;9.13;;
32094;SDS011;18608;53.688;10.748;2024-01-30T13:25:16;37.30;;;10.07;;
32094;SDS011;18608;53.688;10.748;2024-01-30T13:27:43;14.90;;;8.50;;
32094;SDS011;18608;53.688;10.748;2024-01-30T13:30:09;12.50;;;8.77;;
32094;SDS011;18608;53.688;10.748;2024-01-30T13:32:35;10.97;;;8.17;;
32094;SDS011;18608;53.688;10.748;2024-01-30T13:35:01;11.50;;;8.10;;
32094;SDS011;18608;53.688;10.748;2024-01-30T13:37:27;19.93;;;12.47;;
32094;SDS011;18608;53.688;10.748;2024-01-30T13:39:53;64.90;;;32.50;;
32094;SDS011;18608;53.688;10.748;2024-01-30T13:42:19;50.60;;;25.23;;
32094;SDS011;18608;53.688;10.748;2024-01-30T13:44:45;43.50;;;22.70;;
32094;SDS011;18608;53.688;10.748;2024-01-30T13:47:11;26.47;;;11.37;;
32094;SDS011;18608;53.688;10.748;2024-01-30T13:49:37;19.40;;;10.93;;
32094;SDS011;18608;53.688;10.748;2024-01-30T13:52:03;14.07;;;10.27;;
32094;SDS011;18608;53.688;10.748;2024-01-30T13:54:29;18.20;;;9.97;;
32094;SDS011;18608;53.688;10.748;2024-01-30T13:56:56;44.53;;;24.23;;
32094;SDS011;18608;53.688;10.748;2024-01-30T13:59:22;15.43;;;11.90;;
32094;SDS011;18608;53.688;10.748;2024-01-30T14:01:50;11.17;;;8.60;;
32094;SDS011;18608;53.688;10.748;2024-01-30T14:04:16;13.20;;;9.17;;
32094;SDS011;18608;53.688;10.748;2024-01-30T14:06:42;16.83;;;10.90;;
32094;SDS011;18608;53.688;10.748;2024-01-30T14:09:08;13.10;;;10.17;;
32094;SDS011;18608;53.688;10.748;2024-01-30T14:11:35;14.67;;;8.90;;
32094;SDS011;18608;53.688;10.748;2024-01-30T14:14:01;15.03;;;9.63;;
32094;SDS011;18608;53.688;10.748;2024-01-30T14:16:27;10.80;;;8.60;;
32094;SDS011;18608;53.688;10.748;2024-01-30T14:18:53;17.87;;;11.23;;
32094;SDS011;18608;53.688;10.748;2024-01-30T14:21:19;17.37;;;11.00;;
32094;SDS011;18608;53.688;10.748;2024-01-30T14:23:45;19.20;;;10.30;;
32094;SDS011;18608;53.688;10.748;2024-01-30T14:26:12;12.70;;;8.87;;